Time;durP1;ratioP1;P1;durP2;ratioP2;P2;SDS_P1;SDS_P2;PMS_P1;PMS_P2;Temp;Humidity;BMP_temperature;BMP_pressure;BME280_temperature;BME280_humidity;BME280_pressure;Samples;Min_cycle;Max_cycle;Signal;HPM_P1;HPM_P2
2023/08/12 00:01:16;;;;;;;;;;;20.10;84.90;;;;;;5097704;28;20370;-72
2023/08/12 00:03:42;;;;;;;;;;;20.10;84.90;;;;;;5097355;28;20305;-73
2023/08/12 00:06:07;;;;;;;;;;;20.10;84.90;;;;;;5097306;28;19908;-74
2023/08/12 00:08:33;;;;;;;;;;;20.10;84.90;;;;;;5097606;28;19908;-74
2023/08/12 00:10:58;;;;;;;;;;;20.10;84.90;;;;;;5097866;28;19909;-71
2023/08/12 00:13:24;;;;;;;;;;;20.10;84.90;;;;;;5097613;28;19908;-73
2023/08/12 00:15:49;;;;;;;;;;;20.10;84.90;;;;;;5097393;28;19908;-72
2023/08/12 00:18:15;;;;;;;;;;;20.10;84.90;;;;;;5097320;28;20346;-72
2023/08/12 00:20:42;;;;;;;;;;;20.10;84.90;;;;;;5097298;28;19981;-71
2023/08/12 00:23:08;;;;;;;;;;;20.10;84.90;;;;;;5097119;28;19908;-71
2023/08/12 00:25:33;;;;;;;;;;;20.10;84.90;;;;;;5097154;28;19915;-71
2023/08/12 00:27:59;;;;;;;;;;;20.10;84.90;;;;;;5096963;28;19912;-69
2023/08/12 00:30:24;;;;;;;;;;;20.10;84.90;;;;;;5097059;28;20307;-73
2023/08/12 00:32:50;;;;;;;;;;;20.10;84.90;;;;;;5096931;28;19908;-73
2023/08/12 00:35:15;;;;;;;;;;;20.10;84.90;;;;;;5096631;28;19912;-72
2023/08/12 00:37:41;;;;;;;;;;;20.10;84.90;;;;;;5096566;28;20328;-72
2023/08/12 00:40:06;;;;;;;;;;;20.10;84.90;;;;;;5096923;28;20275;-72
2023/08/12 00:42:32;;;;;;;;;;;20.10;84.90;;;;;;5097490;28;19952;-72
2023/08/12 00:44:58;;;;;;;;;;;20.10;84.90;;;;;;5096541;28;19927;-72
2023/08/12 00:47:23;;;;;;;;;;;20.10;84.90;;;;;;5096734;28;19912;-72
2023/08/12 00:49:49;;;;;;;;;;;20.10;84.90;;;;;;5096475;28;19908;-72
2023/08/12 00:52:15;;;;;;;;;;;20.10;84.90;;;;;;5096451;28;19947;-72
2023/08/12 00:54:40;;;;;;;;;;;20.10;84.90;;;;;;5096371;28;19951;-72
2023/08/12 00:57:06;;;;;;;;;;;20.10;84.90;;;;;;5096294;28;20327;-72
2023/08/12 00:59:32;;;;;;;;;;;20.10;85.40;;;;;;5096580;28;19919;-72
2023/08/12 01:01:58;;;;;;;;;;;20.10;84.90;;;;;;5096485;28;19912;-72
2023/08/12 01:04:23;;;;;;;;;;;20.10;84.90;;;;;;5096406;28;19908;-72
2023/08/12 01:06:48;;;;;;;;;;;20.10;84.90;;;;;;5094911;28;19909;-71
2023/08/12 01:09:14;;;;;;;;;;;20.10;84.90;;;;;;5095937;28;19999;-70
2023/08/12 01:11:42;;;;;;;;;;;20.10;84.90;;;;;;5095994;28;20380;-70
2023/08/12 01:14:13;;;;;;;;;;;20.10;84.90;;;;;;5096241;28;19908;-71
2023/08/12 01:16:40;;;;;;;;;;;20.10;84.90;;;;;;5095788;28;19915;-71
2023/08/12 01:19:09;;;;;;;;;;;20.10;84.90;;;;;;5095697;28;19916;-72
2023/08/12 01:21:36;;;;;;;;;;;20.10;84.90;;;;;;5096221;28;19920;-72
2023/08/12 01:24:02;;;;;;;;;;;20.10;85.40;;;;;;5095977;28;20312;-74
2023/08/12 01:26:28;;;;;;;;;;;20.10;84.90;;;;;;5096005;28;19908;-74
2023/08/12 01:28:53;;;;;;;;;;;20.20;84.90;;;;;;5095732;28;19915;-72
2023/08/12 01:31:24;;;;;;;;;;;20.20;84.90;;;;;;5095926;28;19947;-72
2023/08/12 01:33:52;;;;;;;;;;;20.20;84.90;;;;;;5095647;28;19940;-72
2023/08/12 01:36:19;;;;;;;;;;;20.20;84.90;;;;;;5095811;28;19908;-72
2023/08/12 01:38:46;;;;;;;;;;;20.10;84.80;;;;;;5095719;28;19927;-72
2023/08/12 01:41:13;;;;;;;;;;;20.20;84.90;;;;;;5095773;28;19993;-72
2023/08/12 01:43:39;;;;;;;;;;;20.20;84.90;;;;;;5095407;28;19915;-72
2023/08/12 01:46:04;;;;;;;;;;;20.20;84.90;;;;;;5095732;28;19924;-71
2023/08/12 01:48:30;;;;;;;;;;;20.20;84.90;;;;;;5094341;28;20279;-72
2023/08/12 01:50:55;;;;;;;;;;;20.20;84.90;;;;;;5095578;28;20015;-72
2023/08/12 01:53:21;;;;;;;;;;;20.20;84.90;;;;;;5095250;28;19908;-72
2023/08/12 01:55:47;;;;;;;;;;;20.20;84.90;;;;;;5095503;28;20278;-72
2023/08/12 01:58:13;;;;;;;;;;;20.20;84.90;;;;;;5095196;28;19918;-72
2023/08/12 02:00:38;;;;;;;;;;;20.20;84.90;;;;;;5095079;28;19912;-71
2023/08/12 02:03:04;;;;;;;;;;;20.20;84.90;;;;;;5095336;28;19958;-71
2023/08/12 02:05:29;;;;;;;;;;;20.20;84.90;;;;;;5094966;28;19908;-72
2023/08/12 02:07:55;;;;;;;;;;;20.20;84.90;;;;;;5095561;28;20360;-71
2023/08/12 02:10:20;;;;;;;;;;;20.20;84.90;;;;;;5095230;28;20047;-71
2023/08/12 02:12:46;;;;;;;;;;;20.20;84.90;;;;;;5095167;28;19939;-71
2023/08/12 02:15:11;;;;;;;;;;;20.20;84.90;;;;;;5095147;28;20002;-72
2023/08/12 02:17:36;;;;;;;;;;;20.20;84.90;;;;;;5094644;28;19912;-71
2023/08/12 02:20:03;;;;;;;;;;;20.20;84.90;;;;;;5094878;28;20266;-72
2023/08/12 02:22:29;;;;;;;;;;;20.20;84.90;;;;;;5095334;28;19915;-73
2023/08/12 02:24:54;;;;;;;;;;;20.20;84.90;;;;;;5094917;28;20003;-73
2023/08/12 02:27:20;;;;;;;;;;;20.20;84.90;;;;;;5094953;28;20248;-71
2023/08/12 02:29:45;;;;;;;;;;;20.20;84.90;;;;;;5094630;28;19943;-71
2023/08/12 02:32:11;;;;;;;;;;;20.20;84.90;;;;;;5095257;28;19908;-71
2023/08/12 02:34:36;;;;;;;;;;;20.20;84.90;;;;;;5094873;28;20274;-71
2023/08/12 02:37:01;;;;;;;;;;;20.20;84.90;;;;;;5095127;28;19912;-70
2023/08/12 02:39:27;;;;;;;;;;;20.20;84.90;;;;;;5094457;28;19963;-71
2023/08/12 02:41:52;;;;;;;;;;;20.20;84.90;;;;;;5094730;28;19912;-71
2023/08/12 02:44:18;;;;;;;;;;;20.20;84.90;;;;;;5094506;28;19908;-71
2023/08/12 02:46:43;;;;;;;;;;;20.20;85.00;;;;;;5094764;28;20348;-71
2023/08/12 02:49:09;;;;;;;;;;;20.20;84.90;;;;;;5094621;28;19908;-71
2023/08/12 02:51:34;;;;;;;;;;;20.20;84.90;;;;;;5094306;28;19920;-71
2023/08/12 02:54:00;;;;;;;;;;;20.20;84.90;;;;;;5094582;28;19908;-71
2023/08/12 02:56:25;;;;;;;;;;;20.20;84.90;;;;;;5094448;28;19912;-71
2023/08/12 02:58:51;;;;;;;;;;;20.20;84.90;;;;;;5094391;28;20192;-71
2023/08/12 03:01:16;;;;;;;;;;;20.20;84.90;;;;;;5094399;28;19912;-71
2023/08/12 03:03:42;;;;;;;;;;;20.20;85.00;;;;;;5094426;28;19908;-71
2023/08/12 03:06:07;;;;;;;;;;;20.20;84.90;;;;;;5094058;28;19915;-71
2023/08/12 03:08:33;;;;;;;;;;;20.20;84.90;;;;;;5094359;28;19908;-70
2023/08/12 03:10:59;;;;;;;;;;;20.20;84.90;;;;;;5093838;28;19931;-71
2023/08/12 03:13:25;;;;;;;;;;;20.20;84.90;;;;;;5093787;28;19962;-71
2023/08/12 03:15:50;;;;;;;;;;;20.20;85.00;;;;;;5093915;28;20271;-71
2023/08/12 03:18:16;;;;;;;;;;;20.20;85.00;;;;;;5094171;28;20279;-71
2023/08/12 03:20:41;;;;;;;;;;;20.20;84.90;;;;;;5093849;28;19912;-71
2023/08/12 03:23:06;;;;;;;;;;;20.20;84.90;;;;;;5093878;28;20005;-71
2023/08/12 03:25:32;;;;;;;;;;;20.20;84.90;;;;;;5093974;28;19911;-69
2023/08/12 03:27:57;;;;;;;;;;;20.20;85.00;;;;;;5093876;28;20321;-71
2023/08/12 03:30:23;;;;;;;;;;;20.20;84.90;;;;;;5094831;28;19908;-71
2023/08/12 03:32:48;;;;;;;;;;;20.20;84.90;;;;;;5098279;28;19940;-71
2023/08/12 03:35:14;;;;;;;;;;;20.20;84.90;;;;;;5098131;28;19969;-71
2023/08/12 03:37:39;;;;;;;;;;;20.20;84.90;;;;;;5098106;28;19916;-71
2023/08/12 03:40:06;;;;;;;;;;;20.20;84.90;;;;;;5098444;28;19980;-71
2023/08/12 03:42:31;;;;;;;;;;;20.20;84.90;;;;;;5098049;28;19909;-71
2023/08/12 03:44:57;;;;;;;;;;;20.20;85.00;;;;;;5097776;28;20282;-71
2023/08/12 03:47:24;;;;;;;;;;;20.20;84.90;;;;;;5098000;28;19915;-71
2023/08/12 03:49:49;;;;;;;;;;;20.20;84.90;;;;;;5097799;28;19908;-71
2023/08/12 03:52:15;;;;;;;;;;;20.20;84.90;;;;;;5097837;28;19918;-71
2023/08/12 03:54:40;;;;;;;;;;;20.20;85.00;;;;;;5097864;28;20316;-71
2023/08/12 03:57:06;;;;;;;;;;;20.20;84.90;;;;;;5097896;28;19912;-71
2023/08/12 03:59:31;;;;;;;;;;;20.20;85.00;;;;;;5097811;28;20265;-71
2023/08/12 04:01:57;;;;;;;;;;;20.20;84.90;;;;;;5097544;28;19919;-71
2023/08/12 04:04:23;;;;;;;;;;;20.20;84.90;;;;;;5097781;28;19909;-71
2023/08/12 04:06:51;;;;;;;;;;;20.20;84.90;;;;;;5097334;28;19944;-71
2023/08/12 04:09:17;;;;;;;;;;;20.20;84.90;;;;;;5097574;28;19908;-71
2023/08/12 04:11:42;;;;;;;;;;;20.20;85.40;;;;;;5097564;28;19908;-71
2023/08/12 04:14:08;;;;;;;;;;;20.20;84.90;;;;;;5097237;28;19915;-71
2023/08/12 04:16:33;;;;;;;;;;;20.20;84.90;;;;;;5097368;28;19915;-71
2023/08/12 04:18:59;;;;;;;;;;;20.20;84.90;;;;;;5097170;28;19919;-71
2023/08/12 04:21:24;;;;;;;;;;;20.20;84.90;;;;;;5097336;28;19912;-71
2023/08/12 04:23:50;;;;;;;;;;;20.20;84.90;;;;;;5097251;28;19951;-72
2023/08/12 04:26:15;;;;;;;;;;;20.20;84.90;;;;;;5097168;28;19919;-71
2023/08/12 04:28:41;;;;;;;;;;;20.20;84.90;;;;;;5096850;28;19959;-71
2023/08/12 04:31:07;;;;;;;;;;;20.20;84.90;;;;;;5096688;28;19916;-72
2023/08/12 04:33:33;;;;;;;;;;;20.20;84.90;;;;;;5096937;28;19908;-72
2023/08/12 04:35:58;;;;;;;;;;;20.20;84.90;;;;;;5096922;28;19991;-72
2023/08/12 04:38:25;;;;;;;;;;;20.20;84.90;;;;;;5096637;28;19948;-72
2023/08/12 04:40:52;;;;;;;;;;;20.20;84.90;;;;;;5096786;28;19973;-71
2023/08/12 04:43:17;;;;;;;;;;;20.20;84.90;;;;;;5095577;28;20266;-72
2023/08/12 04:45:44;;;;;;;;;;;20.20;84.90;;;;;;5096690;28;19920;-69
2023/08/12 04:48:10;;;;;;;;;;;20.20;84.90;;;;;;5096986;28;20362;-71
2023/08/12 04:50:38;;;;;;;;;;;20.20;84.90;;;;;;5096042;28;20322;-71
2023/08/12 04:53:04;;;;;;;;;;;20.20;84.90;;;;;;5096561;28;20262;-71
2023/08/12 04:55:30;;;;;;;;;;;20.20;84.90;;;;;;5096701;28;19912;-71
2023/08/12 04:57:55;;;;;;;;;;;20.20;85.00;;;;;;5096164;28;20375;-71
2023/08/12 05:00:21;;;;;;;;;;;20.30;85.00;;;;;;5096537;28;20378;-71
2023/08/12 05:02:47;;;;;;;;;;;20.20;84.90;;;;;;5096532;28;19961;-71
2023/08/12 05:05:13;;;;;;;;;;;20.20;84.90;;;;;;5096382;28;19908;-71
2023/08/12 05:07:38;;;;;;;;;;;20.30;85.00;;;;;;5096188;28;19908;-71
2023/08/12 05:10:04;;;;;;;;;;;20.20;84.90;;;;;;5096446;28;19937;-71
2023/08/12 05:12:29;;;;;;;;;;;20.20;84.90;;;;;;5095888;28;19915;-71
2023/08/12 05:14:55;;;;;;;;;;;20.20;85.00;;;;;;5096010;28;19969;-71
2023/08/12 05:17:20;;;;;;;;;;;20.20;84.90;;;;;;5095932;28;20006;-71
2023/08/12 05:19:46;;;;;;;;;;;20.30;85.00;;;;;;5096212;28;19912;-71
2023/08/12 05:22:11;;;;;;;;;;;20.20;85.00;;;;;;5096156;28;19995;-71
2023/08/12 05:24:37;;;;;;;;;;;20.30;85.00;;;;;;5096104;28;19908;-70
2023/08/12 05:27:04;;;;;;;;;;;20.30;85.00;;;;;;5094978;28;19915;-71
2023/08/12 05:29:29;;;;;;;;;;;20.30;85.00;;;;;;5095517;28;19962;-71
2023/08/12 05:31:55;;;;;;;;;;;20.30;85.00;;;;;;5095650;28;19908;-71
2023/08/12 05:34:20;;;;;;;;;;;20.30;85.00;;;;;;5095566;28;19909;-71
2023/08/12 05:36:46;;;;;;;;;;;20.30;85.00;;;;;;5095566;28;20009;-71
2023/08/12 05:39:11;;;;;;;;;;;20.30;85.00;;;;;;5095761;28;19918;-71
2023/08/12 05:41:36;;;;;;;;;;;20.30;85.00;;;;;;5095359;28;19919;-71
2023/08/12 05:44:02;;;;;;;;;;;20.30;85.00;;;;;;5095473;28;20355;-71
2023/08/12 05:46:28;;;;;;;;;;;20.30;85.00;;;;;;5095810;28;19920;-72
2023/08/12 05:48:53;;;;;;;;;;;20.30;85.00;;;;;;5095301;28;20305;-71
2023/08/12 05:51:19;;;;;;;;;;;20.30;85.00;;;;;;5095301;28;19914;-71
2023/08/12 05:53:44;;;;;;;;;;;20.30;85.00;;;;;;5094791;28;19992;-72
2023/08/12 05:56:10;;;;;;;;;;;20.30;85.10;;;;;;5095529;28;20373;-71
2023/08/12 05:58:35;;;;;;;;;;;20.30;85.00;;;;;;5095104;28;19922;-70
2023/08/12 06:01:01;;;;;;;;;;;20.30;85.00;;;;;;5095469;28;19916;-71
2023/08/12 06:03:26;;;;;;;;;;;20.30;85.10;;;;;;5095098;28;19996;-71
2023/08/12 06:05:52;;;;;;;;;;;20.30;85.10;;;;;;5095641;28;19908;-71
2023/08/12 06:08:17;;;;;;;;;;;20.30;85.10;;;;;;5095323;28;20262;-71
2023/08/12 06:10:43;;;;;;;;;;;20.30;85.00;;;;;;5095191;28;19908;-71
2023/08/12 06:13:08;;;;;;;;;;;20.30;85.30;;;;;;5095215;28;20351;-71
2023/08/12 06:15:34;;;;;;;;;;;20.30;85.00;;;;;;5095101;28;19908;-71
2023/08/12 06:18:00;;;;;;;;;;;20.30;85.00;;;;;;5094767;28;19912;-72
2023/08/12 06:20:25;;;;;;;;;;;20.30;85.00;;;;;;5094973;28;19916;-72
2023/08/12 06:22:51;;;;;;;;;;;20.30;85.00;;;;;;5094513;28;19922;-71
2023/08/12 06:25:17;;;;;;;;;;;20.30;85.00;;;;;;5094843;28;19947;-71
2023/08/12 06:27:42;;;;;;;;;;;20.30;85.00;;;;;;5094829;28;19931;-71
2023/08/12 06:30:08;;;;;;;;;;;20.30;85.00;;;;;;5094641;28;20002;-71
2023/08/12 06:32:34;;;;;;;;;;;20.30;85.00;;;;;;5094469;28;19961;-71
2023/08/12 06:35:00;;;;;;;;;;;20.30;85.00;;;;;;5094374;28;19915;-72
2023/08/12 06:37:25;;;;;;;;;;;20.30;85.00;;;;;;5094746;28;19912;-72
2023/08/12 06:39:51;;;;;;;;;;;20.30;85.00;;;;;;5094445;28;19954;-71
2023/08/12 06:42:16;;;;;;;;;;;20.30;85.00;;;;;;5094657;28;19912;-71
2023/08/12 06:44:42;;;;;;;;;;;20.30;85.00;;;;;;5093935;28;20358;-71
2023/08/12 06:47:07;;;;;;;;;;;20.30;85.00;;;;;;5094080;28;19954;-71
2023/08/12 06:49:33;;;;;;;;;;;20.30;85.00;;;;;;5094525;28;19908;-71
2023/08/12 06:51:58;;;;;;;;;;;20.30;85.00;;;;;;5094076;28;19908;-71
2023/08/12 06:54:24;;;;;;;;;;;20.30;85.00;;;;;;5094130;28;19952;-71
2023/08/12 06:56:50;;;;;;;;;;;20.30;85.00;;;;;;5094314;28;19909;-71
2023/08/12 06:59:15;;;;;;;;;;;20.40;85.00;;;;;;5094210;28;19922;-71
2023/08/12 07:01:41;;;;;;;;;;;20.30;85.00;;;;;;5094271;28;19912;-70
2023/08/12 07:04:06;;;;;;;;;;;20.30;85.00;;;;;;5093987;28;19958;-71
2023/08/12 07:06:32;;;;;;;;;;;20.30;85.00;;;;;;5093131;28;20002;-71
2023/08/12 07:08:57;;;;;;;;;;;20.30;85.00;;;;;;5093920;28;19918;-70
2023/08/12 07:11:22;;;;;;;;;;;20.30;85.00;;;;;;5094202;28;20013;-71
2023/08/12 07:13:48;;;;;;;;;;;20.30;85.00;;;;;;5093816;28;19917;-70
2023/08/12 07:16:13;;;;;;;;;;;20.40;85.00;;;;;;5093464;28;19958;-70
2023/08/12 07:18:39;;;;;;;;;;;20.30;85.50;;;;;;5093976;28;19916;-70
2023/08/12 07:21:04;;;;;;;;;;;20.30;85.00;;;;;;5092855;28;19934;-70
2023/08/12 07:23:30;;;;;;;;;;;20.30;85.00;;;;;;5093692;28;19931;-70
2023/08/12 07:25:55;;;;;;;;;;;20.30;85.00;;;;;;5093937;28;19998;-71
2023/08/12 07:28:21;;;;;;;;;;;20.30;85.00;;;;;;5094009;28;19908;-71
2023/08/12 07:30:47;;;;;;;;;;;20.30;85.00;;;;;;5093853;28;20310;-71
2023/08/12 07:33:13;;;;;;;;;;;20.30;85.00;;;;;;5092632;28;19939;-71
2023/08/12 07:35:38;;;;;;;;;;;20.30;85.00;;;;;;5093536;28;20374;-70
2023/08/12 07:38:04;;;;;;;;;;;20.30;85.00;;;;;;5093562;28;19912;-71
2023/08/12 07:40:29;;;;;;;;;;;20.30;85.00;;;;;;5093500;28;19999;-71
2023/08/12 07:42:55;;;;;;;;;;;20.30;85.00;;;;;;5093786;28;20366;-71
2023/08/12 07:45:21;;;;;;;;;;;20.30;85.00;;;;;;5093593;28;19920;-71
2023/08/12 07:47:46;;;;;;;;;;;20.30;85.00;;;;;;5093525;28;19915;-71
2023/08/12 07:50:12;;;;;;;;;;;20.40;85.10;;;;;;5094060;28;19908;-70
2023/08/12 07:52:37;;;;;;;;;;;20.40;85.00;;;;;;5092398;28;19958;-68
2023/08/12 07:55:03;;;;;;;;;;;20.40;85.00;;;;;;5093861;28;19908;-70
2023/08/12 07:57:28;;;;;;;;;;;20.30;85.00;;;;;;5094061;28;19916;-70
2023/08/12 07:59:54;;;;;;;;;;;20.40;85.00;;;;;;5093603;28;19919;-71
2023/08/12 08:02:19;;;;;;;;;;;20.40;85.00;;;;;;5093712;28;20350;-71
2023/08/12 08:04:48;;;;;;;;;;;20.40;85.00;;;;;;5093280;28;19912;-71
2023/08/12 08:07:15;;;;;;;;;;;20.40;85.00;;;;;;5092974;28;19909;-70
2023/08/12 08:09:40;;;;;;;;;;;20.40;85.00;;;;;;5093245;28;20282;-71
2023/08/12 08:12:07;;;;;;;;;;;20.40;85.00;;;;;;5093412;28;19912;-72
2023/08/12 08:14:32;;;;;;;;;;;20.40;85.10;;;;;;5093334;28;20029;-72
2023/08/12 08:16:58;;;;;;;;;;;20.40;85.00;;;;;;5095540;28;20388;-71
2023/08/12 08:19:23;;;;;;;;;;;20.40;85.10;;;;;;5097011;28;19957;-72
2023/08/12 08:21:48;;;;;;;;;;;20.40;85.10;;;;;;5097257;28;19918;-71
2023/08/12 08:24:14;;;;;;;;;;;20.40;85.10;;;;;;5097162;28;20346;-72
2023/08/12 08:26:42;;;;;;;;;;;20.40;85.10;;;;;;5096735;28;19908;-71
2023/08/12 08:29:08;;;;;;;;;;;20.40;85.10;;;;;;5096801;28;19908;-72
2023/08/12 08:31:34;;;;;;;;;;;20.40;85.00;;;;;;5096830;28;20274;-71
2023/08/12 08:33:59;;;;;;;;;;;20.40;85.10;;;;;;5096642;28;19908;-72
2023/08/12 08:36:25;;;;;;;;;;;20.40;85.10;;;;;;5096934;28;20307;-71
2023/08/12 08:38:50;;;;;;;;;;;20.40;85.10;;;;;;5096485;28;20012;-71
2023/08/12 08:41:16;;;;;;;;;;;20.40;85.10;;;;;;5096670;28;19916;-71
2023/08/12 08:43:44;;;;;;;;;;;20.40;85.20;;;;;;5096319;28;19961;-71
2023/08/12 08:46:10;;;;;;;;;;;20.40;85.20;;;;;;5096649;28;19955;-71
2023/08/12 08:48:36;;;;;;;;;;;20.40;85.20;;;;;;5096642;28;19919;-71
2023/08/12 08:51:02;;;;;;;;;;;20.40;85.70;;;;;;5096752;28;19908;-71
2023/08/12 08:53:27;;;;;;;;;;;20.40;85.20;;;;;;5096657;28;19908;-71
2023/08/12 08:55:53;;;;;;;;;;;20.40;85.20;;;;;;5096521;28;19915;-71
2023/08/12 08:58:19;;;;;;;;;;;20.40;85.20;;;;;;5096417;28;20274;-71
2023/08/12 09:00:44;;;;;;;;;;;20.40;85.20;;;;;;5095982;28;19912;-71
2023/08/12 09:03:10;;;;;;;;;;;20.40;85.30;;;;;;5096295;28;20400;-71
2023/08/12 09:05:36;;;;;;;;;;;20.40;85.20;;;;;;5096238;28;19912;-71
2023/08/12 09:08:02;;;;;;;;;;;20.40;85.30;;;;;;5096031;28;19962;-71
2023/08/12 09:10:27;;;;;;;;;;;20.40;85.30;;;;;;5096467;28;19908;-71
2023/08/12 09:12:56;;;;;;;;;;;20.40;85.30;;;;;;5096149;28;20048;-71
2023/08/12 09:15:22;;;;;;;;;;;20.40;85.30;;;;;;5095941;28;19961;-71
2023/08/12 09:17:47;;;;;;;;;;;20.40;85.30;;;;;;5096064;28;19999;-71
2023/08/12 09:20:13;;;;;;;;;;;20.40;85.30;;;;;;5095852;28;19912;-71
2023/08/12 09:22:39;;;;;;;;;;;20.40;85.30;;;;;;5096007;28;19908;-71
2023/08/12 09:25:05;;;;;;;;;;;20.40;85.40;;;;;;5096111;28;19912;-71
2023/08/12 09:27:31;;;;;;;;;;;20.40;85.40;;;;;;5095431;28;19954;-71
2023/08/12 09:29:58;;;;;;;;;;;20.40;85.40;;;;;;5095286;28;19915;-71
2023/08/12 09:32:24;;;;;;;;;;;20.40;85.40;;;;;;5095648;28;19909;-71
2023/08/12 09:34:51;;;;;;;;;;;20.40;85.40;;;;;;5096202;28;19931;-71
2023/08/12 09:37:17;;;;;;;;;;;20.40;85.40;;;;;;5094444;28;20408;-71
2023/08/12 09:39:42;;;;;;;;;;;20.50;85.50;;;;;;5095620;28;20350;-71
2023/08/12 09:42:09;;;;;;;;;;;20.40;85.50;;;;;;5095726;28;19965;-71
2023/08/12 09:44:35;;;;;;;;;;;20.40;85.60;;;;;;5095764;28;19972;-71
2023/08/12 09:47:01;;;;;;;;;;;20.40;85.60;;;;;;5095135;28;20386;-71
2023/08/12 09:49:27;;;;;;;;;;;20.40;85.60;;;;;;5095516;28;19908;-72
2023/08/12 09:51:53;;;;;;;;;;;20.40;85.60;;;;;;5095163;28;20320;-72
2023/08/12 09:54:19;;;;;;;;;;;20.40;85.60;;;;;;5095095;28;19915;-71
2023/08/12 09:56:47;;;;;;;;;;;20.50;85.70;;;;;;5095197;28;19919;-71
2023/08/12 09:59:12;;;;;;;;;;;20.40;85.70;;;;;;5095454;28;19919;-71
2023/08/12 10:01:38;;;;;;;;;;;20.40;85.70;;;;;;5094790;28;20278;-71
2023/08/12 10:04:05;;;;;;;;;;;20.40;85.70;;;;;;5094911;28;20442;-71
2023/08/12 10:06:31;;;;;;;;;;;20.50;85.70;;;;;;5093856;28;20329;-71
2023/08/12 10:08:57;;;;;;;;;;;20.50;85.80;;;;;;5095031;28;19916;-71
2023/08/12 10:11:22;;;;;;;;;;;20.50;85.80;;;;;;5094993;28;19934;-71
2023/08/12 10:13:48;;;;;;;;;;;20.50;85.80;;;;;;5094711;28;19908;-71
2023/08/12 10:16:14;;;;;;;;;;;20.50;85.80;;;;;;5094937;28;19961;-71
2023/08/12 10:18:40;;;;;;;;;;;20.50;85.80;;;;;;5095065;28;19912;-71
2023/08/12 10:21:08;;;;;;;;;;;20.40;85.80;;;;;;5094875;28;19923;-71
2023/08/12 10:23:34;;;;;;;;;;;20.40;85.80;;;;;;5094762;28;19915;-72
2023/08/12 10:25:59;;;;;;;;;;;20.50;85.80;;;;;;5094902;28;19908;-71
2023/08/12 10:28:25;;;;;;;;;;;20.50;85.80;;;;;;5094802;28;19908;-71
2023/08/12 10:30:51;;;;;;;;;;;20.50;85.80;;;;;;5094476;28;19908;-71
2023/08/12 10:33:18;;;;;;;;;;;20.50;85.90;;;;;;5094742;28;19908;-71
2023/08/12 10:35:45;;;;;;;;;;;20.50;85.90;;;;;;5094480;28;19908;-71
2023/08/12 10:38:16;;;;;;;;;;;20.50;85.90;;;;;;5094482;28;19934;-71
2023/08/12 10:40:42;;;;;;;;;;;20.50;85.90;;;;;;5094386;28;19916;-70
2023/08/12 10:43:07;;;;;;;;;;;20.50;85.90;;;;;;5094822;28;20336;-71
2023/08/12 10:45:52;;;;;;;;;;;20.50;85.90;;;;;;5094532;28;19920;-71
2023/08/12 10:48:19;;;;;;;;;;;20.50;85.90;;;;;;5094032;28;19908;-70
2023/08/12 10:50:47;;;;;;;;;;;20.50;85.90;;;;;;5094491;28;19915;-70
2023/08/12 10:53:23;;;;;;;;;;;20.50;85.90;;;;;;5094642;28;19908;-71
2023/08/12 10:55:49;;;;;;;;;;;20.50;85.90;;;;;;5094079;28;20022;-71
2023/08/12 10:58:25;;;;;;;;;;;20.50;85.90;;;;;;5094148;28;20015;-71
2023/08/12 11:00:55;;;;;;;;;;;20.50;85.90;;;;;;5094394;28;19942;-71
2023/08/12 11:03:20;;;;;;;;;;;20.50;85.90;;;;;;5093873;28;19908;-71
2023/08/12 11:05:46;;;;;;;;;;;20.50;85.90;;;;;;5093753;28;20313;-70
2023/08/12 11:08:13;;;;;;;;;;;20.50;85.90;;;;;;5092511;28;19908;-66
2023/08/12 11:10:38;;;;;;;;;;;20.50;85.90;;;;;;5094263;28;20003;-72
2023/08/12 11:13:04;;;;;;;;;;;20.50;86.00;;;;;;5094000;28;20358;-72
2023/08/12 11:15:33;;;;;;;;;;;20.50;86.00;;;;;;5094161;28;19933;-73
2023/08/12 11:18:01;;;;;;;;;;;20.50;86.00;;;;;;5093751;28;19915;-72
2023/08/12 11:20:28;;;;;;;;;;;20.50;86.00;;;;;;5093881;28;19919;-71
2023/08/12 11:22:53;;;;;;;;;;;20.50;86.00;;;;;;5093761;28;20362;-71
2023/08/12 11:25:19;;;;;;;;;;;20.50;86.00;;;;;;5093677;28;19908;-71
2023/08/12 11:27:45;;;;;;;;;;;20.50;86.00;;;;;;5093989;28;19912;-71
2023/08/12 11:30:12;;;;;;;;;;;20.50;86.00;;;;;;5093950;28;19908;-71
2023/08/12 11:32:38;;;;;;;;;;;20.50;86.00;;;;;;5093895;28;19908;-71
2023/08/12 11:35:05;;;;;;;;;;;20.50;86.00;;;;;;5093947;28;19908;-72
2023/08/12 11:37:31;;;;;;;;;;;20.50;86.00;;;;;;5094084;28;19908;-71
2023/08/12 11:39:57;;;;;;;;;;;20.50;86.00;;;;;;5093639;28;19959;-71
2023/08/12 11:42:22;;;;;;;;;;;20.50;86.00;;;;;;5093391;28;19916;-71
2023/08/12 11:44:48;;;;;;;;;;;20.50;86.00;;;;;;5093936;28;20015;-71
2023/08/12 11:47:13;;;;;;;;;;;20.50;86.10;;;;;;5093342;28;20287;-71
2023/08/12 11:49:39;;;;;;;;;;;20.50;86.10;;;;;;5093650;28;19908;-70
2023/08/12 11:52:05;;;;;;;;;;;20.50;86.10;;;;;;5095835;28;19915;-71
2023/08/12 11:54:30;;;;;;;;;;;20.50;86.10;;;;;;5097644;28;19998;-70
2023/08/12 11:56:57;;;;;;;;;;;20.50;86.10;;;;;;5097814;28;19912;-71
2023/08/12 11:59:22;;;;;;;;;;;20.50;86.10;;;;;;5097466;28;20291;-71
2023/08/12 12:01:51;;;;;;;;;;;20.50;86.10;;;;;;5097965;28;19919;-71
2023/08/12 12:04:20;;;;;;;;;;;20.50;86.10;;;;;;5097536;28;19908;-70
2023/08/12 12:06:46;;;;;;;;;;;20.50;86.10;;;;;;5097532;28;19954;-70
2023/08/12 12:09:12;;;;;;;;;;;20.50;86.10;;;;;;5097237;28;19962;-71
2023/08/12 12:11:38;;;;;;;;;;;20.50;86.10;;;;;;5097136;28;19914;-71
2023/08/12 12:14:04;;;;;;;;;;;20.50;86.10;;;;;;5097112;28;19908;-71
2023/08/12 12:16:43;;;;;;;;;;;20.50;86.20;;;;;;5097290;28;19908;-71
2023/08/12 12:19:16;;;;;;;;;;;20.50;86.20;;;;;;5096965;28;19965;-71
2023/08/12 12:21:42;;;;;;;;;;;20.50;86.20;;;;;;5096778;28;19912;-71
2023/08/12 12:24:08;;;;;;;;;;;20.50;86.20;;;;;;5096756;28;19916;-71
2023/08/12 12:26:34;;;;;;;;;;;20.50;86.20;;;;;;5097087;28;19908;-70
2023/08/12 12:29:00;;;;;;;;;;;20.50;86.20;;;;;;5096752;28;19915;-71
2023/08/12 12:31:25;;;;;;;;;;;20.50;86.20;;;;;;5097422;28;19912;-71
2023/08/12 12:33:51;;;;;;;;;;;20.50;86.20;;;;;;5097179;28;20331;-72
2023/08/12 12:36:16;;;;;;;;;;;20.50;86.20;;;;;;5096330;28;19999;-72
2023/08/12 12:38:43;;;;;;;;;;;20.50;86.20;;;;;;5096207;28;19912;-72
2023/08/12 12:41:08;;;;;;;;;;;20.50;86.20;;;;;;5096922;28;19947;-72
2023/08/12 12:43:34;;;;;;;;;;;20.50;86.20;;;;;;5096782;28;19916;-71
2023/08/12 12:45:59;;;;;;;;;;;20.50;86.20;;;;;;5096582;28;19931;-71
2023/08/12 12:48:25;;;;;;;;;;;20.50;86.20;;;;;;5096217;28;19938;-70
2023/08/12 12:50:50;;;;;;;;;;;20.50;86.20;;;;;;5096821;28;20358;-72
2023/08/12 12:53:16;;;;;;;;;;;20.50;86.20;;;;;;5095334;28;20354;-72
2023/08/12 12:55:42;;;;;;;;;;;20.50;86.20;;;;;;5096410;28;19908;-72
2023/08/12 12:58:09;;;;;;;;;;;20.50;86.20;;;;;;5096158;28;19949;-73
2023/08/12 13:00:34;;;;;;;;;;;20.50;86.20;;;;;;5096500;28;19912;-72
2023/08/12 13:03:00;;;;;;;;;;;20.50;86.20;;;;;;5095015;28;19933;-71
2023/08/12 13:05:25;;;;;;;;;;;20.60;86.30;;;;;;5096111;28;19912;-74
2023/08/12 13:07:51;;;;;;;;;;;20.50;86.20;;;;;;5095711;28;19915;-71
2023/08/12 13:10:16;;;;;;;;;;;20.50;86.20;;;;;;5096149;28;20420;-73
2023/08/12 13:12:42;;;;;;;;;;;20.50;86.20;;;;;;5096304;28;19916;-73
2023/08/12 13:15:07;;;;;;;;;;;20.50;86.20;;;;;;5096081;28;19957;-73
2023/08/12 13:17:33;;;;;;;;;;;20.60;86.30;;;;;;5096184;28;20374;-72
2023/08/12 13:19:58;;;;;;;;;;;20.50;86.20;;;;;;5096064;28;20002;-72
2023/08/12 13:22:23;;;;;;;;;;;20.60;86.30;;;;;;5096016;28;19912;-71
2023/08/12 13:24:49;;;;;;;;;;;20.60;86.30;;;;;;5095685;28;19912;-72
2023/08/12 13:27:14;;;;;;;;;;;20.60;86.30;;;;;;5095881;28;20004;-68
2023/08/12 13:29:40;;;;;;;;;;;20.60;86.30;;;;;;5095493;28;20324;-72
2023/08/12 13:32:05;;;;;;;;;;;20.60;86.30;;;;;;5095594;28;19919;-72
2023/08/12 13:34:31;;;;;;;;;;;20.60;86.30;;;;;;5095572;28;19930;-72
2023/08/12 13:36:56;;;;;;;;;;;20.60;86.30;;;;;;5095476;28;19908;-72
2023/08/12 13:39:22;;;;;;;;;;;20.60;86.30;;;;;;5095672;28;20418;-72
2023/08/12 13:41:47;;;;;;;;;;;20.60;86.30;;;;;;5095690;28;19914;-71
2023/08/12 13:44:13;;;;;;;;;;;20.60;86.30;;;;;;5095537;28;20351;-71
2023/08/12 13:46:38;;;;;;;;;;;20.60;86.40;;;;;;5095181;28;19908;-72
2023/08/12 13:49:03;;;;;;;;;;;20.60;86.30;;;;;;5095135;28;19908;-72
2023/08/12 13:51:30;;;;;;;;;;;20.60;86.30;;;;;;5095326;28;19912;-72
2023/08/12 13:53:55;;;;;;;;;;;20.60;86.30;;;;;;5095193;28;19913;-72
2023/08/12 13:56:21;;;;;;;;;;;20.60;86.40;;;;;;5095258;28;20335;-72
2023/08/12 13:58:46;;;;;;;;;;;20.60;86.30;;;;;;5094831;28;19999;-72
2023/08/12 14:01:12;;;;;;;;;;;20.60;86.30;;;;;;5095443;28;19918;-72
2023/08/12 14:03:38;;;;;;;;;;;20.60;86.30;;;;;;5095312;28;20365;-72
2023/08/12 14:06:03;;;;;;;;;;;20.60;86.30;;;;;;5095232;28;19908;-72
2023/08/12 14:08:28;;;;;;;;;;;20.60;86.30;;;;;;5094999;28;19908;-72